• Join FlightAware (Why Join?)
  • Login
  • US Flag GB Flag 
09:30 EDT


 

Airport Tracker/Info


-or-


 

Live Flight TrackerFlight Track Log ✈ ASQ3849 ✈ 03-May-2013 ✈ KCLE - KBNA

Flight Track Log - Related Links

Times and Time Zones

All times are in EDT time to prevent confusion due to time zone crossing. See the ASQ3849 flight status page for this flight to view local times or setup timezone preferences in your user account.

Time Position Orientation Groundspeed Altitude Reporting Facility
EDT Latitude Longitude Course Direction KTS MPH feet Rate Location/Type
19:12 41.4194 -81.8347 357° North 160 184 1,800  Level Cleveland Center
19:13 41.4903 -81.8389 357° North 270 311 3,300 1,800 Climbing Cleveland Center
19:14 41.5333 -81.8953 316° Northwest 278 320 5,500 2,580 Climbing Cleveland Center
19:15 41.4969 -81.9747 239° Southwest 284 327 8,200 2,340 Climbing Cleveland Center
19:16 41.4544 -82.0542 234° Southwest 277 319 10,200 1,320 Climbing Cleveland Center
19:17 41.4031 -82.1500 234° Southwest 293 337 10,900 1,020 Climbing Cleveland Center
19:18 41.3475 -82.2511 234° Southwest 332 382 12,300 1,440 Climbing Cleveland Center
19:19 41.3100 -82.3744 248° West 352 405 13,800 1,500 Climbing Cleveland Center
19:20 41.2808 -82.5036 253° West 369 425 15,300 1,440 Climbing Cleveland Center
19:21 41.2475 -82.6350 251° West 369 425 16,700 1,200 Climbing Cleveland Center
19:22 41.2139 -82.7611 251° West 369 425 17,800 960 Climbing Cleveland Center
19:23 41.1778 -82.8978 251° West 378 435 18,700 900 Climbing Cleveland Center
19:24 41.1481 -83.0181 252° West 383 441 19,700 1,020 Climbing Cleveland Center
19:25 41.1117 -83.1572 251° West 394 453 20,800 1,080 Climbing Cleveland Center
19:26 41.0747 -83.3100 252° West 399 459 21,900 1,140 Climbing Cleveland Center
19:28 40.9983 -83.5928 250° West 406 467 24,500 1,140 Climbing Indianapolis Center
19:29 40.9597 -83.7314 250° West 401 461 25,600 1,020 Climbing Indianapolis Center
19:30 40.8772 -83.8264 221° Southwest 393 452 26,600 900 Climbing Indianapolis Center
19:31 40.7872 -83.9100 215° Southwest 395 455 27,500 1,080 Climbing Indianapolis Center
19:32 40.6817 -84.0067 215° Southwest 394 453 28,900 1,200 Climbing Indianapolis Center
19:33 40.5942 -84.0858 214° Southwest 382 440 30,000 480 Climbing Indianapolis Center
19:34 40.5025 -84.1697 215° Southwest 395 455 30,000  Level Indianapolis Center
19:35 40.4044 -84.2581 214° Southwest 422 486 30,000  Level Indianapolis Center
19:36 40.3044 -84.3486 215° Southwest 433 498 30,000  Level Indianapolis Center
19:37 40.2022 -84.4408 215° Southwest 441 507 30,000  Level Indianapolis Center
19:38 40.1039 -84.5286 214° Southwest 430 495 30,000  Level Indianapolis Center
19:39 40.0044 -84.6167 214° Southwest 429 494 30,000  Level Indianapolis Center
19:41 39.9064 -84.7044 214° Southwest 425 489 30,000  Level Indianapolis Center
19:42 39.7914 -84.8064 214° Southwest 427 491 30,000  Level Indianapolis Center
19:43 39.6847 -84.8708 205° Southwest 421 484 30,000  Level Indianapolis Center
19:44 39.5881 -84.9156 200° South 421 484 30,000  Level Indianapolis Center
19:45 39.4781 -84.9658 199° South 420 483 30,000  Level Indianapolis Center
19:46 39.3447 -85.0250 199° South 421 484 30,000  Level Indianapolis Center
19:47 39.2350 -85.0756 200° South 419 482 30,000  Level Indianapolis Center
19:48 39.1236 -85.1258 199° South 423 487 30,000  Level Indianapolis Center
19:49 39.0136 -85.1756 199° South 421 484 30,000  Level Indianapolis Center
19:50 38.9025 -85.2258 199° South 422 486 30,000  Level Indianapolis Center
19:51 38.7919 -85.2733 199° South 419 482 30,000  Level Indianapolis Center
19:52 38.6808 -85.3231 199° South 422 486 30,000  Level Indianapolis Center
19:53 38.5714 -85.3717 199° South 421 484 30,000  Level Indianapolis Center
19:54 38.4386 -85.4303 199° South 420 483 30,000  Level Indianapolis Center
19:55 38.3278 -85.4789 199° South 419 482 30,000  Level Indianapolis Center
19:56 38.2161 -85.5272 199° South 419 482 30,000  Level Indianapolis Center
19:57 38.1053 -85.5744 199° South 419 482 30,000  Level Indianapolis Center
19:58 37.9903 -85.5942 188° South 415 478 30,000  Level Indianapolis Center
19:59 37.8725 -85.6106 186° South 417 480 30,000  Level Indianapolis Center
20:00 37.7539 -85.6289 187° South 424 488 30,000  Level Indianapolis Center
20:01 37.6375 -85.6453 186° South 420 483 30,000 -780 Level Indianapolis Center
20:02 37.5206 -85.6617 186° South 421 484 28,500 -1,560 Descending Indianapolis Center
20:03 37.4075 -85.6783 187° South 409 471 26,900 -1,680 Descending Indianapolis Center
20:03 37.3586 -85.6889 190° South 421 484 26,200 -1,620 Descending Memphis Center
20:04 37.2447 -85.7033 186° South 421 484 24,700 -1,440 Descending Memphis Center
20:05 37.1328 -85.7203 187° South 421 484 23,400 -1,080 Descending Memphis Center
20:06 37.0206 -85.7322 185° South 416 479 22,600 -1,260 Descending Memphis Center
20:07 36.9089 -85.7517 188° South 410 472 20,900 -1,800 Descending Memphis Center
20:08 36.7911 -85.7817 192° South 404 465 19,000 -2,100 Descending Memphis Center
20:09 36.6994 -85.8386 206° Southwest 391 450 16,800 -2,220 Descending Memphis Center
20:10 36.6139 -85.8925 207° Southwest 368 423 14,600 -2,160 Descending Memphis Center
20:11 36.5283 -85.9436 206° Southwest 348 400 12,500 -1,620 Descending Memphis Center
20:12 36.4617 -86.0067 217° Southwest 326 375 11,400 -1,140 Descending Memphis Center
20:13 36.4292 -86.0883 244° Southwest 281 323 10,300 -1,500 Descending Memphis Center
20:14 36.3964 -86.1725 244° Southwest 276 318 8,500 -1,800 Descending Memphis Center
20:15 36.3617 -86.2569 243° Southwest 276 318 6,800 -1,500 Descending Memphis Center
20:16 36.3328 -86.3306 244° Southwest 276 318 5,500 -1,380 Descending Memphis Center
20:17 36.3039 -86.4039 244° Southwest 255 293 4,100 -1,200 Descending Memphis Center
20:18 36.2750 -86.4775 244° Southwest 244 281 3,100 -840 Descending Memphis Center
20:19 36.2461 -86.5508 244° Southwest 244 281 2,500 -480 Descending Memphis Center
20:20 36.2317 -86.6289 257° West 239 275 2,200 -420 Descending Memphis Center
20:21 36.1869 -86.6617 211° Southwest 167 192 1,700 -660 Descending Memphis Center
20:22 36.1456 -86.6764 196° South 160 184 900 -540 Descending Memphis Center
20:23 36.1047 -86.7014 206° Southwest 160 184 700 -240 Descending Memphis Center
20:25 36.1167 -86.6667 58° Northeast  Level FlightAware Approximate
20:32 36.1245 -86.6782 58° Northeast  Level Estimated
20:33 36.1245 -86.6782 58° Northeast  Level Estimated
20:34 36.1245 -86.6782 58° Northeast  Level Estimated
20:35 36.1245 -86.6782 58° Northeast  Level Estimated
20:36 36.1245 -86.6782 58° Northeast  Level Estimated
20:37 36.1245 -86.6782 58° Northeast  Level Estimated
20:38 36.1245 -86.6782 58° Northeast  Level Estimated
20:39 36.1245 -86.6782 58° Northeast  Level Estimated
20:40 36.1245 -86.6782 58° Northeast  Level Estimated